createdAt,value
2017-10-13T00:02:01.235Z,11.20
2017-10-13T00:04:28.788Z,11.10
2017-10-13T00:06:56.341Z,11.00
2017-10-13T00:09:24.079Z,10.90
2017-10-13T00:11:51.622Z,11.00
2017-10-13T00:14:19.942Z,11.00
2017-10-13T00:16:47.521Z,11.00
2017-10-13T00:19:15.453Z,11.10
2017-10-13T00:21:42.962Z,11.10
2017-10-13T00:24:11.273Z,11.30
2017-10-13T00:26:38.894Z,11.30
2017-10-13T00:29:06.422Z,11.40
2017-10-13T00:31:34.221Z,11.40
2017-10-13T00:34:01.753Z,11.50
2017-10-13T00:36:29.317Z,11.50
2017-10-13T00:38:56.897Z,11.60
2017-10-13T00:41:24.417Z,11.60
2017-10-13T00:43:51.969Z,11.70
2017-10-13T00:46:19.516Z,11.80
2017-10-13T00:48:47.371Z,11.80
2017-10-13T00:51:14.892Z,11.90
2017-10-13T00:53:42.434Z,11.90
2017-10-13T00:56:09.967Z,11.90
2017-10-13T00:58:37.513Z,11.90
2017-10-13T01:01:05.372Z,11.90
2017-10-13T01:03:32.896Z,11.90
2017-10-13T01:06:01.193Z,12.00
2017-10-13T01:08:28.749Z,12.00
2017-10-13T01:10:56.346Z,12.00
2017-10-13T01:13:23.894Z,12.00
2017-10-13T01:15:51.432Z,12.00
2017-10-13T01:18:19.245Z,12.00
2017-10-13T01:20:46.800Z,12.00
2017-10-13T01:23:14.322Z,12.00
2017-10-13T01:25:41.900Z,12.10
2017-10-13T01:28:09.473Z,12.10
2017-10-13T01:30:37.025Z,12.10
2017-10-13T01:33:04.538Z,12.10
2017-10-13T01:35:32.893Z,12.10
2017-10-13T01:38:00.468Z,12.00
2017-10-13T01:40:29.174Z,12.10
2017-10-13T01:42:56.753Z,12.10
2017-10-13T01:45:24.305Z,12.10
2017-10-13T01:47:51.979Z,12.20
2017-10-13T01:50:20.265Z,12.30
2017-10-13T01:52:48.620Z,12.30
2017-10-13T01:55:16.156Z,12.30
2017-10-13T01:57:43.708Z,12.20
2017-10-13T02:00:12.073Z,12.20
2017-10-13T02:02:39.854Z,12.20
2017-10-13T02:05:08.159Z,12.40
2017-10-13T02:07:35.684Z,12.40
2017-10-13T02:10:03.995Z,12.40
2017-10-13T02:12:31.551Z,12.40
2017-10-13T02:14:59.107Z,12.40
2017-10-13T02:17:26.634Z,12.40
2017-10-13T02:19:55.328Z,12.50
2017-10-13T02:22:23.662Z,12.60
2017-10-13T02:24:51.190Z,12.50
2017-10-13T02:27:18.741Z,12.50
2017-10-13T02:29:46.330Z,12.40
2017-10-13T02:32:13.890Z,12.50
2017-10-13T02:34:41.423Z,12.40
2017-10-13T02:37:09.214Z,12.40
2017-10-13T02:39:36.939Z,12.50
2017-10-13T02:42:04.492Z,12.50
2017-10-13T02:44:32.036Z,12.60
2017-10-13T02:47:00.356Z,12.40
2017-10-13T02:49:27.920Z,12.40
2017-10-13T02:51:55.453Z,12.30
2017-10-13T02:54:23.009Z,12.30
2017-10-13T02:56:50.573Z,12.20
2017-10-13T02:59:18.120Z,12.20
2017-10-13T03:01:45.658Z,12.20
2017-10-13T03:04:14.238Z,12.20
2017-10-13T03:06:41.815Z,12.20
2017-10-13T03:09:10.105Z,12.20
2017-10-13T03:11:37.711Z,12.20
2017-10-13T03:14:05.222Z,12.20
2017-10-13T03:16:32.798Z,12.20
2017-10-13T03:19:00.313Z,12.40
2017-10-13T03:21:28.920Z,12.40
2017-10-13T03:23:56.453Z,12.40
2017-10-13T03:26:23.985Z,12.40
2017-10-13T03:28:51.549Z,12.50
2017-10-13T03:31:19.092Z,12.40
2017-10-13T03:33:46.933Z,12.50
2017-10-13T03:36:14.478Z,12.60
2017-10-13T03:38:42.020Z,12.60
2017-10-13T03:41:10.343Z,12.50
2017-10-13T03:43:37.948Z,12.50
2017-10-13T03:46:05.488Z,12.50
2017-10-13T03:48:33.022Z,12.60
2017-10-13T03:51:00.854Z,12.50
2017-10-13T03:53:28.405Z,12.50
2017-10-13T03:55:56.712Z,12.40
2017-10-13T03:58:24.260Z,12.40
2017-10-13T04:00:51.768Z,12.30
2017-10-13T04:03:19.627Z,12.30
2017-10-13T04:05:47.173Z,12.40
2017-10-13T04:08:14.718Z,12.40
2017-10-13T04:10:42.409Z,12.50
2017-10-13T04:13:09.921Z,12.50
2017-10-13T04:15:37.492Z,12.50
2017-10-13T04:18:05.034Z,12.50
2017-10-13T04:20:33.597Z,12.40
2017-10-13T04:23:01.900Z,12.30
2017-10-13T04:25:29.438Z,12.30
2017-10-13T04:27:57.769Z,12.30
2017-10-13T04:30:25.368Z,12.30
2017-10-13T04:32:53.713Z,12.20
2017-10-13T04:35:21.245Z,12.20
2017-10-13T04:37:49.817Z,12.10
2017-10-13T04:40:17.389Z,12.10
2017-10-13T04:42:45.744Z,12.20
2017-10-13T04:45:13.281Z,12.10
2017-10-13T04:47:41.573Z,12.20
2017-10-13T04:50:09.383Z,12.20
2017-10-13T04:52:36.973Z,12.20
2017-10-13T04:55:04.510Z,12.20
2017-10-13T04:57:32.068Z,12.20
2017-10-13T04:59:59.600Z,12.20
2017-10-13T05:02:27.150Z,12.20
2017-10-13T05:04:54.956Z,12.20
2017-10-13T05:07:23.123Z,12.20
2017-10-13T05:09:50.972Z,12.20
2017-10-13T05:12:19.012Z,12.30
2017-10-13T05:14:46.537Z,12.30
2017-10-13T05:17:14.073Z,12.30
2017-10-13T05:19:41.911Z,12.30
2017-10-13T05:22:09.481Z,12.40
2017-10-13T05:24:37.017Z,12.40
2017-10-13T05:27:04.625Z,12.40
2017-10-13T05:29:32.252Z,12.40
2017-10-13T05:31:59.971Z,12.50
2017-10-13T05:34:28.268Z,12.50
2017-10-13T05:36:55.880Z,12.50
2017-10-13T05:39:23.424Z,12.50
2017-10-13T05:41:50.969Z,12.50
2017-10-13T05:44:18.590Z,12.50
2017-10-13T05:46:46.911Z,12.60
2017-10-13T05:49:14.456Z,12.60
2017-10-13T05:51:42.008Z,12.60
2017-10-13T05:54:09.574Z,12.50
2017-10-13T05:56:37.233Z,12.50
2017-10-13T05:59:04.754Z,12.60
2017-10-13T06:01:33.068Z,12.60
2017-10-13T06:04:00.653Z,12.60
2017-10-13T06:06:28.360Z,12.70
2017-10-13T06:08:55.907Z,12.70
2017-10-13T06:11:23.437Z,12.70
2017-10-13T06:13:51.003Z,12.70
2017-10-13T06:16:18.543Z,12.80
2017-10-13T06:18:46.080Z,12.80
2017-10-13T06:21:15.448Z,12.80
2017-10-13T06:23:43.049Z,12.80
2017-10-13T06:26:10.584Z,12.90
2017-10-13T06:28:38.145Z,12.80
2017-10-13T06:31:06.448Z,12.70
2017-10-13T06:33:34.000Z,12.70
2017-10-13T06:36:01.525Z,12.80
2017-10-13T06:38:29.333Z,12.70
2017-10-13T06:40:56.985Z,12.80
2017-10-13T06:43:24.523Z,12.80
2017-10-13T06:45:52.830Z,12.80
2017-10-13T06:48:20.391Z,12.80
2017-10-13T06:50:47.951Z,12.70
2017-10-13T06:53:15.489Z,12.70
2017-10-13T06:55:43.454Z,12.80
2017-10-13T06:58:10.998Z,12.70
2017-10-13T07:00:39.303Z,12.80
2017-10-13T07:03:06.838Z,12.90
2017-10-13T07:05:34.432Z,13.00
2017-10-13T07:08:02.001Z,13.20
2017-10-13T07:10:29.513Z,13.30
2017-10-13T07:12:58.115Z,13.40
2017-10-13T07:15:25.711Z,13.40
2017-10-13T07:17:53.241Z,13.60
2017-10-13T07:20:20.853Z,13.90
2017-10-13T07:22:48.417Z,14.20
2017-10-13T07:25:16.809Z,14.20
2017-10-13T07:27:45.131Z,14.30
2017-10-13T07:30:13.082Z,14.30
2017-10-13T07:32:40.619Z,14.40
2017-10-13T07:35:08.949Z,14.40
2017-10-13T07:37:36.525Z,14.40
2017-10-13T07:40:04.055Z,14.70
2017-10-13T07:42:31.634Z,14.60
2017-10-13T07:44:59.172Z,14.50
2017-10-13T07:47:27.013Z,14.50
2017-10-13T07:49:54.560Z,14.60
2017-10-13T07:52:22.158Z,14.60
2017-10-13T07:54:49.760Z,14.30
2017-10-13T07:57:17.321Z,14.20
2017-10-13T07:59:44.916Z,14.30
2017-10-13T08:02:12.477Z,14.50
2017-10-13T08:04:40.454Z,14.60
2017-10-13T08:07:07.997Z,15.00
2017-10-13T08:09:35.541Z,14.80
2017-10-13T08:12:03.141Z,15.00
2017-10-13T08:14:30.712Z,14.50
2017-10-13T08:16:58.296Z,14.60
2017-10-13T08:19:26.016Z,14.60
2017-10-13T08:21:53.822Z,14.80
2017-10-13T08:24:21.375Z,14.90
2017-10-13T08:26:55.024Z,15.00
2017-10-13T08:29:25.592Z,14.90
2017-10-13T08:31:53.124Z,15.00
2017-10-13T08:34:20.681Z,15.20
2017-10-13T08:36:48.225Z,15.10
2017-10-13T08:39:15.850Z,15.20
2017-10-13T08:41:43.391Z,15.20
2017-10-13T08:44:11.296Z,15.20
2017-10-13T08:46:38.802Z,15.20
2017-10-13T08:49:06.344Z,15.00
2017-10-13T08:51:33.937Z,15.10
2017-10-13T08:54:01.668Z,15.20
2017-10-13T08:56:29.233Z,15.30
2017-10-13T08:58:56.802Z,15.40
2017-10-13T09:01:24.649Z,15.40
2017-10-13T09:03:52.188Z,15.50
2017-10-13T09:06:19.697Z,15.70
2017-10-13T09:08:47.320Z,15.90
2017-10-13T09:11:14.865Z,15.90
2017-10-13T09:13:42.480Z,16.00
2017-10-13T09:16:10.006Z,16.10
2017-10-13T09:18:37.851Z,16.20
2017-10-13T09:21:05.397Z,16.20
2017-10-13T09:23:32.938Z,16.30
2017-10-13T09:26:00.514Z,16.40
2017-10-13T09:28:28.057Z,16.20
2017-10-13T09:30:56.382Z,16.50
2017-10-13T09:33:23.947Z,16.50
2017-10-13T09:35:51.763Z,16.40
2017-10-13T09:38:19.316Z,16.40
2017-10-13T09:40:46.841Z,16.40
2017-10-13T09:43:14.412Z,16.50
2017-10-13T09:45:41.962Z,16.40
2017-10-13T09:48:09.537Z,16.50
2017-10-13T09:50:37.090Z,16.50
2017-10-13T09:53:04.657Z,16.50
2017-10-13T09:55:32.206Z,16.70
2017-10-13T09:58:00.008Z,16.80
2017-10-13T10:00:28.317Z,17.20
2017-10-13T10:02:55.846Z,17.20
2017-10-13T10:05:24.166Z,17.50
2017-10-13T10:07:51.660Z,17.50
2017-10-13T10:10:20.256Z,17.70
2017-10-13T10:12:48.537Z,18.00
2017-10-13T10:15:16.090Z,18.00
2017-10-13T10:17:44.420Z,18.50
2017-10-13T10:20:12.005Z,18.40
2017-10-13T10:22:39.558Z,18.50
2017-10-13T10:25:07.094Z,18.80
2017-10-13T10:27:34.931Z,18.80
2017-10-13T10:30:02.510Z,18.90
2017-10-13T10:32:30.045Z,19.00
2017-10-13T10:34:57.600Z,19.20
2017-10-13T10:37:25.199Z,19.70
2017-10-13T10:39:52.770Z,20.00
2017-10-13T10:42:20.306Z,20.30
2017-10-13T10:44:48.124Z,20.10
2017-10-13T10:47:16.487Z,20.80
2017-10-13T10:49:44.036Z,20.70
2017-10-13T10:52:11.577Z,21.10
2017-10-13T10:54:39.134Z,21.20
2017-10-13T10:57:06.713Z,21.50
2017-10-13T10:59:34.253Z,22.70
2017-10-13T11:02:02.073Z,24.00
2017-10-13T11:04:30.409Z,26.40
2017-10-13T11:06:57.987Z,26.30
2017-10-13T11:09:25.541Z,27.10
2017-10-13T11:11:53.073Z,28.20
2017-10-13T11:14:20.675Z,29.10
2017-10-13T11:16:48.965Z,30.50
2017-10-13T11:19:16.812Z,30.40
2017-10-13T11:21:44.349Z,30.70
2017-10-13T11:24:11.940Z,30.60
2017-10-13T11:26:40.424Z,29.60
2017-10-13T11:29:08.724Z,30.60
2017-10-13T11:31:36.296Z,30.60
2017-10-13T11:34:03.794Z,30.90
2017-10-13T11:36:31.685Z,30.70
2017-10-13T11:38:59.987Z,30.80
2017-10-13T11:41:27.511Z,30.70
2017-10-13T11:43:55.875Z,30.30
2017-10-13T11:46:23.743Z,30.30
2017-10-13T11:48:51.306Z,29.30
2017-10-13T11:51:18.853Z,27.50
2017-10-13T11:53:46.466Z,25.90
2017-10-13T11:56:14.025Z,25.50
2017-10-13T11:58:41.836Z,24.60
2017-10-13T12:01:09.510Z,24.50
2017-10-13T12:03:37.220Z,24.80
2017-10-13T12:06:04.878Z,24.60
2017-10-13T12:08:32.424Z,24.60
2017-10-13T12:11:00.068Z,24.70
2017-10-13T12:13:28.360Z,24.00
2017-10-13T12:15:57.073Z,24.00
2017-10-13T12:18:24.677Z,24.00
2017-10-13T12:20:52.983Z,23.60
2017-10-13T12:23:20.605Z,23.50
2017-10-13T12:25:48.125Z,23.40
2017-10-13T12:28:15.674Z,23.30
2017-10-13T12:30:43.274Z,23.20
2017-10-13T12:33:11.273Z,23.20
2017-10-13T12:35:39.579Z,23.40
2017-10-13T12:38:08.003Z,23.30
2017-10-13T12:40:35.560Z,23.20
2017-10-13T12:43:03.182Z,23.30
2017-10-13T12:45:30.774Z,23.20
2017-10-13T12:47:58.334Z,23.40
2017-10-13T12:50:26.003Z,23.50
2017-10-13T12:52:53.529Z,23.70
2017-10-13T12:55:21.637Z,23.50
2017-10-13T12:57:49.196Z,23.50
2017-10-13T13:00:17.217Z,23.90
2017-10-13T13:02:45.016Z,24.00
2017-10-13T13:05:12.544Z,24.50
2017-10-13T13:07:40.154Z,24.20
2017-10-13T13:10:16.035Z,24.10
2017-10-13T13:12:44.617Z,24.50
2017-10-13T13:15:12.173Z,24.40
2017-10-13T13:17:39.777Z,25.00
2017-10-13T13:20:07.485Z,26.00
2017-10-13T13:22:36.006Z,27.70
2017-10-13T13:25:03.574Z,27.70
2017-10-13T13:27:31.237Z,28.80
2017-10-13T13:29:59.149Z,28.90
2017-10-13T13:32:26.691Z,29.60
2017-10-13T13:34:54.237Z,29.80
2017-10-13T13:37:22.638Z,29.20
2017-10-13T13:39:51.090Z,29.20
2017-10-13T13:42:18.774Z,29.20
2017-10-13T13:44:46.356Z,29.10
2017-10-13T13:47:14.963Z,28.90
2017-10-13T13:49:42.522Z,28.80
2017-10-13T13:52:10.095Z,29.00
2017-10-13T13:54:37.711Z,28.90
2017-10-13T13:57:06.026Z,28.10
2017-10-13T13:59:33.616Z,28.10
2017-10-13T14:02:01.253Z,27.90
2017-10-13T14:04:28.793Z,28.00
2017-10-13T14:06:56.298Z,28.00
2017-10-13T14:09:24.149Z,27.70
2017-10-13T14:11:51.709Z,27.60
2017-10-13T14:14:19.276Z,27.20
2017-10-13T14:16:46.833Z,27.00
2017-10-13T14:19:14.398Z,26.20
2017-10-13T14:21:42.172Z,25.30
2017-10-13T14:24:09.710Z,24.50
2017-10-13T14:26:37.273Z,23.70
2017-10-13T14:29:04.889Z,23.30
2017-10-13T14:31:32.587Z,22.80
2017-10-13T14:34:00.166Z,22.60
2017-10-13T14:36:27.854Z,22.60
2017-10-13T14:38:56.443Z,22.80
2017-10-13T14:41:24.781Z,22.80
2017-10-13T14:43:52.328Z,22.80
2017-10-13T14:46:19.909Z,22.90
2017-10-13T14:48:47.470Z,22.90
2017-10-13T14:51:15.055Z,22.90
2017-10-13T14:53:43.393Z,23.00
2017-10-13T14:56:11.317Z,23.00
2017-10-13T14:58:38.853Z,22.80
2017-10-13T15:01:06.404Z,22.80
2017-10-13T15:03:33.977Z,22.80
2017-10-13T15:06:03.546Z,22.30
2017-10-13T15:08:33.533Z,22.30
2017-10-13T15:11:02.826Z,22.30
2017-10-13T15:13:30.981Z,22.20
2017-10-13T15:15:58.546Z,22.20
2017-10-13T15:18:26.473Z,22.30
2017-10-13T15:20:54.214Z,22.40
2017-10-13T15:23:21.773Z,22.30
2017-10-13T15:25:55.159Z,22.20
2017-10-13T15:28:28.337Z,22.10
2017-10-13T15:31:01.788Z,22.00
2017-10-13T15:33:34.804Z,21.90
2017-10-13T15:36:07.934Z,21.70
2017-10-13T15:41:47.936Z,21.40
2017-10-13T15:44:21.076Z,21.10
2017-10-13T15:46:54.271Z,21.20
2017-10-13T15:49:27.375Z,20.90
2017-10-13T15:52:00.780Z,20.70
2017-10-13T15:54:28.302Z,20.60
2017-10-13T15:56:56.183Z,20.50
2017-10-13T15:59:23.781Z,20.40
2017-10-13T16:01:51.392Z,20.20
2017-10-13T16:04:18.958Z,20.10
2017-10-13T16:06:46.496Z,19.90
2017-10-13T16:09:14.051Z,19.80
2017-10-13T16:11:42.332Z,19.50
2017-10-13T16:14:10.136Z,19.50
2017-10-13T16:19:11.927Z,19.20
2017-10-13T16:21:39.449Z,18.90
2017-10-13T16:24:07.042Z,18.70
2017-10-13T16:26:34.624Z,18.50
2017-10-13T16:29:02.154Z,18.40
2017-10-13T16:31:29.685Z,18.30
2017-10-13T16:33:57.256Z,18.10
2017-10-13T16:36:25.520Z,18.00
2017-10-13T16:38:53.058Z,17.80
2017-10-13T16:41:20.688Z,17.60
2017-10-13T16:43:48.299Z,17.50
2017-10-13T16:46:15.850Z,17.30
2017-10-13T16:48:43.416Z,17.20
2017-10-13T16:51:10.988Z,17.00
2017-10-13T16:53:38.858Z,16.90
2017-10-13T16:56:06.413Z,16.80
2017-10-13T16:58:33.995Z,16.70
2017-10-13T17:01:01.567Z,16.50
2017-10-13T17:03:29.069Z,16.50
2017-10-13T17:05:56.883Z,16.40
2017-10-13T17:08:25.518Z,16.20
2017-10-13T17:10:53.402Z,16.20
2017-10-13T17:13:21.188Z,16.10
2017-10-13T17:15:48.854Z,15.90
2017-10-13T17:18:16.433Z,15.70
2017-10-13T17:20:44.398Z,15.50
2017-10-13T17:23:12.058Z,15.40
2017-10-13T17:25:40.474Z,15.20
2017-10-13T17:28:08.728Z,15.20
2017-10-13T17:30:36.426Z,15.10
2017-10-13T17:33:04.850Z,14.90
2017-10-13T17:35:32.790Z,14.90
2017-10-13T17:38:01.459Z,14.90
2017-10-13T17:40:30.417Z,14.70
2017-10-13T17:42:58.132Z,14.70
2017-10-13T17:45:25.966Z,14.70
2017-10-13T17:47:53.506Z,14.60
2017-10-13T17:50:21.956Z,14.40
2017-10-13T17:52:49.601Z,14.30
2017-10-13T17:55:17.352Z,14.30
2017-10-13T17:57:45.038Z,14.20
2017-10-13T18:00:12.569Z,14.10
2017-10-13T18:02:40.403Z,14.00
2017-10-13T18:05:07.974Z,13.90
2017-10-13T18:07:35.562Z,13.90
2017-10-13T18:10:03.573Z,13.80
2017-10-13T18:12:31.391Z,13.80
2017-10-13T18:14:58.999Z,13.70
2017-10-13T18:17:26.618Z,13.60
2017-10-13T18:19:54.598Z,13.60
2017-10-13T18:22:22.278Z,13.50
2017-10-13T18:24:50.096Z,13.40
2017-10-13T18:27:17.857Z,13.30
2017-10-13T18:29:45.639Z,13.20
2017-10-13T18:32:13.336Z,13.20
2017-10-13T18:34:42.649Z,13.00
2017-10-13T18:37:12.438Z,12.90
2017-10-13T18:39:40.019Z,12.90
2017-10-13T18:42:08.326Z,12.70
2017-10-13T18:44:36.225Z,12.70
2017-10-13T18:47:04.230Z,12.60
2017-10-13T18:49:32.029Z,12.50
2017-10-13T18:52:00.371Z,12.50
2017-10-13T18:54:29.140Z,12.30
2017-10-13T18:56:56.804Z,12.30
2017-10-13T18:59:24.463Z,12.40
2017-10-13T19:01:52.162Z,12.40
2017-10-13T19:04:19.785Z,12.30
2017-10-13T19:06:47.424Z,12.20
2017-10-13T19:09:15.252Z,12.20
2017-10-13T19:11:43.579Z,12.10
2017-10-13T19:14:12.459Z,12.00
2017-10-13T19:26:25.091Z,12.00
2017-10-13T19:28:52.756Z,11.80
2017-10-13T19:31:21.034Z,11.70
2017-10-13T19:33:48.654Z,11.70
2017-10-13T19:36:16.302Z,11.70
2017-10-13T19:38:44.016Z,11.50
2017-10-13T19:41:11.692Z,11.50
2017-10-13T19:43:39.317Z,11.40
2017-10-13T19:46:07.147Z,11.40
2017-10-13T19:48:36.078Z,11.40
2017-10-13T19:51:03.886Z,11.40
2017-10-13T19:53:31.510Z,11.30
2017-10-13T19:55:59.162Z,11.30
2017-10-13T19:58:27.550Z,11.20
2017-10-13T20:00:55.228Z,11.20
2017-10-13T20:03:22.835Z,11.30
2017-10-13T20:05:50.799Z,11.30
2017-10-13T20:08:18.402Z,11.30
2017-10-13T20:10:46.031Z,11.20
2017-10-13T20:13:13.663Z,11.20
2017-10-13T20:15:41.278Z,11.20
2017-10-13T20:18:09.156Z,11.20
2017-10-13T20:20:36.863Z,11.10
2017-10-13T20:23:04.509Z,11.10
2017-10-13T20:25:32.133Z,11.00
2017-10-13T20:27:59.806Z,10.90
2017-10-13T20:30:27.407Z,10.80
2017-10-13T20:32:55.018Z,10.80
2017-10-13T20:35:22.948Z,10.90
2017-10-13T20:37:50.598Z,10.80
2017-10-13T20:40:18.225Z,10.80
2017-10-13T20:42:45.854Z,10.90
2017-10-13T20:45:14.226Z,10.90
2017-10-13T20:47:42.722Z,10.90
2017-10-13T20:50:11.077Z,10.80
2017-10-13T20:52:39.016Z,10.80
2017-10-13T20:55:06.608Z,10.80
2017-10-13T20:57:34.964Z,10.70
2017-10-13T21:00:02.690Z,10.70
2017-10-13T21:02:30.279Z,10.70
2017-10-13T21:04:57.939Z,10.60
2017-10-13T21:07:26.327Z,10.40
2017-10-13T21:09:54.326Z,10.40
2017-10-13T21:12:21.977Z,10.40
2017-10-13T21:14:49.575Z,10.30
2017-10-13T21:17:17.223Z,10.30
2017-10-13T21:19:44.918Z,10.30
2017-10-13T21:22:12.534Z,10.30
2017-10-13T21:24:40.118Z,10.20
2017-10-13T21:27:08.011Z,10.20
2017-10-13T21:29:35.886Z,10.20
2017-10-13T21:32:03.466Z,10.10
2017-10-13T21:34:31.066Z,10.10
2017-10-13T21:36:58.662Z,10.10
2017-10-13T21:39:26.273Z,10.00
2017-10-13T21:41:53.872Z,10.00
2017-10-13T21:44:21.757Z,10.00
2017-10-13T21:46:49.354Z,9.90
2017-10-13T21:49:17.707Z,9.90
2017-10-13T21:51:45.375Z,9.80
2017-10-13T21:54:13.043Z,9.90
2017-10-13T21:56:41.499Z,9.80
2017-10-13T21:59:09.100Z,9.80
2017-10-13T22:01:37.721Z,9.80
2017-10-13T22:04:06.277Z,9.70
2017-10-13T22:06:34.989Z,9.70
2017-10-13T22:09:02.965Z,9.70
2017-10-13T22:11:30.571Z,9.70
2017-10-13T22:13:58.965Z,9.60
2017-10-13T22:16:26.568Z,9.60
2017-10-13T22:18:54.559Z,9.60
2017-10-13T22:21:22.134Z,9.60
2017-10-13T22:23:49.750Z,9.60
2017-10-13T22:26:17.394Z,9.50
2017-10-13T22:28:44.999Z,9.50
2017-10-13T22:31:12.631Z,9.50
2017-10-13T22:33:40.252Z,9.50
2017-10-13T22:36:08.039Z,9.50
2017-10-13T22:38:35.615Z,9.40
2017-10-13T22:41:03.484Z,9.40
2017-10-13T22:43:31.091Z,9.40
2017-10-13T22:45:59.508Z,9.30
2017-10-13T22:48:27.111Z,9.30
2017-10-13T22:50:54.870Z,9.30
2017-10-13T22:53:23.494Z,9.20
2017-10-13T22:55:51.130Z,9.20
2017-10-13T22:58:19.475Z,9.20
2017-10-13T23:00:47.104Z,9.20
2017-10-13T23:03:14.715Z,9.20
2017-10-13T23:05:42.580Z,9.10
2017-10-13T23:08:10.169Z,9.10
2017-10-13T23:10:38.522Z,9.10
2017-10-13T23:13:06.145Z,9.10
2017-10-13T23:15:33.749Z,9.10
2017-10-13T23:18:02.138Z,9.00
2017-10-13T23:20:29.721Z,9.00
2017-10-13T23:22:57.619Z,9.00
2017-10-13T23:25:25.289Z,9.00
2017-10-13T23:27:52.866Z,8.90
2017-10-13T23:30:20.466Z,8.90
2017-10-13T23:32:48.074Z,8.90
2017-10-13T23:35:15.676Z,8.90
2017-10-13T23:37:44.015Z,8.80
2017-10-13T23:40:12.003Z,8.80
2017-10-13T23:42:40.389Z,8.80
2017-10-13T23:45:08.750Z,8.80
2017-10-13T23:47:36.362Z,8.70
2017-10-13T23:50:03.982Z,8.70
2017-10-13T23:52:32.330Z,8.70
2017-10-13T23:54:59.973Z,8.70
2017-10-13T23:57:27.569Z,8.70
2017-10-13T23:59:55.165Z,8.70
